sensor_id;sensor_type;location;lat;lon;timestamp;P1;P2;P0
48531;PMS5003;34927;37.302;-121.982;2022-07-17T00:00:35;4;4;
48531;PMS5003;34927;37.302;-121.982;2022-07-17T00:01:41;3;3;
48531;PMS5003;34927;37.302;-121.982;2022-07-17T00:02:45;2;2;
48531;PMS5003;34927;37.302;-121.982;2022-07-17T00:03:50;2;2;
48531;PMS5003;34927;37.302;-121.982;2022-07-17T00:04:55;3;3;
48531;PMS5003;34927;37.302;-121.982;2022-07-17T00:06:01;2;2;
48531;PMS5003;34927;37.302;-121.982;2022-07-17T00:07:06;2;2;
48531;PMS5003;34927;37.302;-121.982;2022-07-17T00:08:11;3;3;
48531;PMS5003;34927;37.302;-121.982;2022-07-17T00:09:16;3;3;
48531;PMS5003;34927;37.302;-121.982;2022-07-17T00:10:21;4;4;
48531;PMS5003;34927;37.302;-121.982;2022-07-17T00:11:27;4;4;
48531;PMS5003;34927;37.302;-121.982;2022-07-17T00:12:31;4;4;
48531;PMS5003;34927;37.302;-121.982;2022-07-17T00:13:35;4;4;
48531;PMS5003;34927;37.302;-121.982;2022-07-17T00:14:41;3;3;
48531;PMS5003;34927;37.302;-121.982;2022-07-17T00:15:46;3;3;
48531;PMS5003;34927;37.302;-121.982;2022-07-17T00:16:50;3;3;
48531;PMS5003;34927;37.302;-121.982;2022-07-17T00:17:56;3;3;
48531;PMS5003;34927;37.302;-121.982;2022-07-17T00:19:01;3;3;
48531;PMS5003;34927;37.302;-121.982;2022-07-17T00:20:06;3;3;
48531;PMS5003;34927;37.302;-121.982;2022-07-17T00:21:10;3;3;
48531;PMS5003;34927;37.302;-121.982;2022-07-17T00:22:15;3;3;
48531;PMS5003;34927;37.302;-121.982;2022-07-17T00:23:21;3;3;
48531;PMS5003;34927;37.302;-121.982;2022-07-17T00:24:26;3;3;
48531;PMS5003;34927;37.302;-121.982;2022-07-17T00:25:31;3;3;
48531;PMS5003;34927;37.302;-121.982;2022-07-17T00:26:36;3;3;
48531;PMS5003;34927;37.302;-121.982;2022-07-17T00:27:41;3;3;
48531;PMS5003;34927;37.302;-121.982;2022-07-17T00:28:46;3;3;
48531;PMS5003;34927;37.302;-121.982;2022-07-17T00:29:51;3;3;
48531;PMS5003;34927;37.302;-121.982;2022-07-17T00:30:55;3;3;
48531;PMS5003;34927;37.302;-121.982;2022-07-17T00:32:01;3;3;
48531;PMS5003;34927;37.302;-121.982;2022-07-17T00:33:06;3;3;
48531;PMS5003;34927;37.302;-121.982;2022-07-17T00:34:11;3;3;
48531;PMS5003;34927;37.302;-121.982;2022-07-17T00:35:15;3;3;
48531;PMS5003;34927;37.302;-121.982;2022-07-17T00:36:20;3;3;
48531;PMS5003;34927;37.302;-121.982;2022-07-17T00:37:25;2;2;
48531;PMS5003;34927;37.302;-121.982;2022-07-17T00:38:31;2;2;
48531;PMS5003;34927;37.302;-121.982;2022-07-17T00:39:36;2;2;
48531;PMS5003;34927;37.302;-121.982;2022-07-17T00:40:41;2;2;
48531;PMS5003;34927;37.302;-121.982;2022-07-17T00:41:46;2;2;
48531;PMS5003;34927;37.302;-121.982;2022-07-17T00:42:51;2;2;
48531;PMS5003;34927;37.302;-121.982;2022-07-17T00:44:02;2;2;
48531;PMS5003;34927;37.302;-121.982;2022-07-17T00:45:06;2;2;
48531;PMS5003;34927;37.302;-121.982;2022-07-17T00:46:11;2;2;
48531;PMS5003;34927;37.302;-121.982;2022-07-17T00:47:16;2;2;
48531;PMS5003;34927;37.302;-121.982;2022-07-17T00:48:21;3;3;
48531;PMS5003;34927;37.302;-121.982;2022-07-17T00:49:25;3;3;
48531;PMS5003;34927;37.302;-121.982;2022-07-17T00:50:32;4;4;
48531;PMS5003;34927;37.302;-121.982;2022-07-17T00:51:35;4;4;
48531;PMS5003;34927;37.302;-121.982;2022-07-17T00:52:41;4;4;
48531;PMS5003;34927;37.302;-121.982;2022-07-17T00:53:46;4;4;
48531;PMS5003;34927;37.302;-121.982;2022-07-17T00:54:51;4;4;
48531;PMS5003;34927;37.302;-121.982;2022-07-17T00:55:55;4;4;
48531;PMS5003;34927;37.302;-121.982;2022-07-17T00:57:00;4;4;
48531;PMS5003;34927;37.302;-121.982;2022-07-17T00:58:05;4;4;
48531;PMS5003;34927;37.302;-121.982;2022-07-17T00:59:11;4;4;
48531;PMS5003;34927;37.302;-121.982;2022-07-17T01:00:16;1;1;
48531;PMS5003;34927;37.302;-121.982;2022-07-17T01:01:21;2;2;
48531;PMS5003;34927;37.302;-121.982;2022-07-17T01:02:26;5;2;
48531;PMS5003;34927;37.302;-121.982;2022-07-17T01:03:30;4;2;
48531;PMS5003;34927;37.302;-121.982;2022-07-17T01:04:36;3;2;
48531;PMS5003;34927;37.302;-121.982;2022-07-17T01:05:41;3;2;
48531;PMS5003;34927;37.302;-121.982;2022-07-17T01:06:47;3;2;
48531;PMS5003;34927;37.302;-121.982;2022-07-17T01:07:51;2;2;
48531;PMS5003;34927;37.302;-121.982;2022-07-17T01:08:56;3;2;
48531;PMS5003;34927;37.302;-121.982;2022-07-17T01:10:01;3;2;
48531;PMS5003;34927;37.302;-121.982;2022-07-17T01:11:05;2;1;
48531;PMS5003;34927;37.302;-121.982;2022-07-17T01:12:11;3;2;
48531;PMS5003;34927;37.302;-121.982;2022-07-17T01:13:16;3;2;
48531;PMS5003;34927;37.302;-121.982;2022-07-17T01:14:21;2;1;
48531;PMS5003;34927;37.302;-121.982;2022-07-17T01:15:25;2;1;
48531;PMS5003;34927;37.302;-121.982;2022-07-17T01:16:31;3;2;
48531;PMS5003;34927;37.302;-121.982;2022-07-17T01:17:35;3;2;
48531;PMS5003;34927;37.302;-121.982;2022-07-17T01:18:41;3;2;
48531;PMS5003;34927;37.302;-121.982;2022-07-17T01:19:46;3;3;
48531;PMS5003;34927;37.302;-121.982;2022-07-17T01:20:51;2;2;
48531;PMS5003;34927;37.302;-121.982;2022-07-17T01:21:56;1;1;
48531;PMS5003;34927;37.302;-121.982;2022-07-17T01:23:00;1;1;
48531;PMS5003;34927;37.302;-121.982;2022-07-17T01:24:06;2;2;
48531;PMS5003;34927;37.302;-121.982;2022-07-17T01:25:11;2;2;
48531;PMS5003;34927;37.302;-121.982;2022-07-17T01:26:15;2;2;
48531;PMS5003;34927;37.302;-121.982;2022-07-17T01:27:21;4;4;
48531;PMS5003;34927;37.302;-121.982;2022-07-17T01:28:25;4;4;
48531;PMS5003;34927;37.302;-121.982;2022-07-17T01:29:31;2;2;
48531;PMS5003;34927;37.302;-121.982;2022-07-17T01:30:36;2;2;
48531;PMS5003;34927;37.302;-121.982;2022-07-17T01:31:46;2;2;
48531;PMS5003;34927;37.302;-121.982;2022-07-17T01:32:51;3;3;
48531;PMS5003;34927;37.302;-121.982;2022-07-17T01:33:56;3;3;
48531;PMS5003;34927;37.302;-121.982;2022-07-17T01:35:01;3;3;
48531;PMS5003;34927;37.302;-121.982;2022-07-17T01:36:06;3;3;
48531;PMS5003;34927;37.302;-121.982;2022-07-17T01:37:11;4;4;
48531;PMS5003;34927;37.302;-121.982;2022-07-17T01:38:15;4;4;
48531;PMS5003;34927;37.302;-121.982;2022-07-17T01:39:21;4;4;
48531;PMS5003;34927;37.302;-121.982;2022-07-17T01:40:26;3;3;
48531;PMS5003;34927;37.302;-121.982;2022-07-17T01:41:30;3;3;
48531;PMS5003;34927;37.302;-121.982;2022-07-17T01:42:36;3;3;
48531;PMS5003;34927;37.302;-121.982;2022-07-17T01:43:41;3;3;
48531;PMS5003;34927;37.302;-121.982;2022-07-17T01:44:45;3;3;
48531;PMS5003;34927;37.302;-121.982;2022-07-17T01:45:51;4;4;
48531;PMS5003;34927;37.302;-121.982;2022-07-17T01:46:56;4;4;
48531;PMS5003;34927;37.302;-121.982;2022-07-17T01:48:01;4;4;
48531;PMS5003;34927;37.302;-121.982;2022-07-17T01:49:05;4;4;
48531;PMS5003;34927;37.302;-121.982;2022-07-17T01:50:11;4;4;
48531;PMS5003;34927;37.302;-121.982;2022-07-17T01:51:15;4;4;
48531;PMS5003;34927;37.302;-121.982;2022-07-17T01:52:21;4;4;
48531;PMS5003;34927;37.302;-121.982;2022-07-17T01:53:26;4;4;
48531;PMS5003;34927;37.302;-121.982;2022-07-17T01:54:31;4;4;
48531;PMS5003;34927;37.302;-121.982;2022-07-17T01:55:35;4;4;
48531;PMS5003;34927;37.302;-121.982;2022-07-17T01:56:41;4;4;
48531;PMS5003;34927;37.302;-121.982;2022-07-17T01:57:46;4;4;
48531;PMS5003;34927;37.302;-121.982;2022-07-17T01:58:51;4;4;
48531;PMS5003;34927;37.302;-121.982;2022-07-17T01:59:55;4;4;
48531;PMS5003;34927;37.302;-121.982;2022-07-17T02:01:01;4;4;
48531;PMS5003;34927;37.302;-121.982;2022-07-17T02:02:06;3;3;
48531;PMS5003;34927;37.302;-121.982;2022-07-17T02:03:11;2;2;
48531;PMS5003;34927;37.302;-121.982;2022-07-17T02:04:15;2;2;
48531;PMS5003;34927;37.302;-121.982;2022-07-17T02:05:21;2;2;
48531;PMS5003;34927;37.302;-121.982;2022-07-17T02:06:26;1;1;
48531;PMS5003;34927;37.302;-121.982;2022-07-17T02:07:30;1;1;
48531;PMS5003;34927;37.302;-121.982;2022-07-17T02:08:36;1;1;
48531;PMS5003;34927;37.302;-121.982;2022-07-17T02:09:41;1;1;
48531;PMS5003;34927;37.302;-121.982;2022-07-17T02:10:46;2;2;
48531;PMS5003;34927;37.302;-121.982;2022-07-17T02:11:51;2;2;
48531;PMS5003;34927;37.302;-121.982;2022-07-17T02:12:55;2;2;
48531;PMS5003;34927;37.302;-121.982;2022-07-17T02:14:01;2;2;
48531;PMS5003;34927;37.302;-121.982;2022-07-17T02:15:06;2;2;
48531;PMS5003;34927;37.302;-121.982;2022-07-17T02:16:11;0;0;
48531;PMS5003;34927;37.302;-121.982;2022-07-17T02:17:16;0;0;
48531;PMS5003;34927;37.302;-121.982;2022-07-17T02:18:21;2;2;
48531;PMS5003;34927;37.302;-121.982;2022-07-17T02:19:26;2;2;
48531;PMS5003;34927;37.302;-121.982;2022-07-17T02:20:30;2;2;
48531;PMS5003;34927;37.302;-121.982;2022-07-17T02:21:36;1;1;
48531;PMS5003;34927;37.302;-121.982;2022-07-17T02:22:41;1;1;
48531;PMS5003;34927;37.302;-121.982;2022-07-17T02:23:45;1;1;
48531;PMS5003;34927;37.302;-121.982;2022-07-17T02:24:51;1;1;
48531;PMS5003;34927;37.302;-121.982;2022-07-17T02:25:56;1;1;
48531;PMS5003;34927;37.302;-121.982;2022-07-17T02:27:00;1;1;
48531;PMS5003;34927;37.302;-121.982;2022-07-17T02:28:05;1;1;
48531;PMS5003;34927;37.302;-121.982;2022-07-17T02:29:11;1;1;
48531;PMS5003;34927;37.302;-121.982;2022-07-17T02:30:16;1;1;
48531;PMS5003;34927;37.302;-121.982;2022-07-17T02:31:20;1;1;
48531;PMS5003;34927;37.302;-121.982;2022-07-17T02:32:25;2;2;
48531;PMS5003;34927;37.302;-121.982;2022-07-17T02:33:31;2;2;
48531;PMS5003;34927;37.302;-121.982;2022-07-17T02:34:36;2;2;
48531;PMS5003;34927;37.302;-121.982;2022-07-17T02:35:41;2;2;
48531;PMS5003;34927;37.302;-121.982;2022-07-17T02:36:46;2;2;
48531;PMS5003;34927;37.302;-121.982;2022-07-17T02:37:51;2;2;
48531;PMS5003;34927;37.302;-121.982;2022-07-17T02:38:55;2;2;
48531;PMS5003;34927;37.302;-121.982;2022-07-17T02:40:00;2;2;
48531;PMS5003;34927;37.302;-121.982;2022-07-17T02:41:06;2;2;
48531;PMS5003;34927;37.302;-121.982;2022-07-17T02:42:11;2;2;
48531;PMS5003;34927;37.302;-121.982;2022-07-17T02:43:16;3;3;
48531;PMS5003;34927;37.302;-121.982;2022-07-17T02:44:20;3;3;
48531;PMS5003;34927;37.302;-121.982;2022-07-17T02:45:26;3;3;
48531;PMS5003;34927;37.302;-121.982;2022-07-17T02:46:30;3;3;
48531;PMS5003;34927;37.302;-121.982;2022-07-17T02:47:35;3;3;
48531;PMS5003;34927;37.302;-121.982;2022-07-17T02:48:41;3;3;
48531;PMS5003;34927;37.302;-121.982;2022-07-17T02:49:46;3;3;
48531;PMS5003;34927;37.302;-121.982;2022-07-17T02:50:51;4;4;
48531;PMS5003;34927;37.302;-121.982;2022-07-17T02:51:56;4;4;
48531;PMS5003;34927;37.302;-121.982;2022-07-17T02:53:01;4;4;
48531;PMS5003;34927;37.302;-121.982;2022-07-17T02:54:06;5;5;
48531;PMS5003;34927;37.302;-121.982;2022-07-17T02:55:11;5;5;
48531;PMS5003;34927;37.302;-121.982;2022-07-17T02:56:16;5;5;
48531;PMS5003;34927;37.302;-121.982;2022-07-17T02:57:20;5;5;
48531;PMS5003;34927;37.302;-121.982;2022-07-17T02:58:25;5;5;
48531;PMS5003;34927;37.302;-121.982;2022-07-17T02:59:31;4;4;
48531;PMS5003;34927;37.302;-121.982;2022-07-17T03:00:35;7;7;
48531;PMS5003;34927;37.302;-121.982;2022-07-17T03:01:41;3;3;
48531;PMS5003;34927;37.302;-121.982;2022-07-17T03:02:46;5;5;
48531;PMS5003;34927;37.302;-121.982;2022-07-17T03:03:50;4;4;
48531;PMS5003;34927;37.302;-121.982;2022-07-17T03:04:56;4;4;
48531;PMS5003;34927;37.302;-121.982;2022-07-17T03:06:01;2;2;
48531;PMS5003;34927;37.302;-121.982;2022-07-17T03:07:06;1;1;
48531;PMS5003;34927;37.302;-121.982;2022-07-17T03:08:11;0;0;
48531;PMS5003;34927;37.302;-121.982;2022-07-17T03:09:15;0;0;
48531;PMS5003;34927;37.302;-121.982;2022-07-17T03:10:21;0;0;
48531;PMS5003;34927;37.302;-121.982;2022-07-17T03:11:26;1;1;
48531;PMS5003;34927;37.302;-121.982;2022-07-17T03:12:31;1;1;
48531;PMS5003;34927;37.302;-121.982;2022-07-17T03:13:35;1;1;
48531;PMS5003;34927;37.302;-121.982;2022-07-17T03:14:41;2;2;
48531;PMS5003;34927;37.302;-121.982;2022-07-17T03:15:46;2;2;
48531;PMS5003;34927;37.302;-121.982;2022-07-17T03:16:50;2;2;
48531;PMS5003;34927;37.302;-121.982;2022-07-17T03:17:56;2;2;
48531;PMS5003;34927;37.302;-121.982;2022-07-17T03:19:01;2;2;
48531;PMS5003;34927;37.302;-121.982;2022-07-17T03:20:06;2;2;
48531;PMS5003;34927;37.302;-121.982;2022-07-17T03:21:10;2;2;
48531;PMS5003;34927;37.302;-121.982;2022-07-17T03:22:16;3;3;
48531;PMS5003;34927;37.302;-121.982;2022-07-17T03:23:21;3;3;
48531;PMS5003;34927;37.302;-121.982;2022-07-17T03:24:26;3;3;
48531;PMS5003;34927;37.302;-121.982;2022-07-17T03:25:31;3;3;
48531;PMS5003;34927;37.302;-121.982;2022-07-17T03:26:36;3;3;
48531;PMS5003;34927;37.302;-121.982;2022-07-17T03:27:40;4;4;
48531;PMS5003;34927;37.302;-121.982;2022-07-17T03:28:46;4;4;
48531;PMS5003;34927;37.302;-121.982;2022-07-17T03:29:51;4;4;
48531;PMS5003;34927;37.302;-121.982;2022-07-17T03:30:55;3;3;
48531;PMS5003;34927;37.302;-121.982;2022-07-17T03:32:01;3;3;
48531;PMS5003;34927;37.302;-121.982;2022-07-17T03:33:06;4;4;
48531;PMS5003;34927;37.302;-121.982;2022-07-17T03:34:11;4;4;
48531;PMS5003;34927;37.302;-121.982;2022-07-17T03:35:16;4;4;
48531;PMS5003;34927;37.302;-121.982;2022-07-17T03:36:21;4;4;
48531;PMS5003;34927;37.302;-121.982;2022-07-17T03:37:25;4;4;
48531;PMS5003;34927;37.302;-121.982;2022-07-17T03:38:31;4;4;
48531;PMS5003;34927;37.302;-121.982;2022-07-17T03:39:36;4;4;
48531;PMS5003;34927;37.302;-121.982;2022-07-17T03:40:41;4;4;
48531;PMS5003;34927;37.302;-121.982;2022-07-17T03:41:46;4;4;
48531;PMS5003;34927;37.302;-121.982;2022-07-17T03:42:51;4;4;
48531;PMS5003;34927;37.302;-121.982;2022-07-17T03:43:55;4;4;
48531;PMS5003;34927;37.302;-121.982;2022-07-17T03:45:01;6;4;
48531;PMS5003;34927;37.302;-121.982;2022-07-17T03:46:06;6;5;
48531;PMS5003;34927;37.302;-121.982;2022-07-17T03:47:11;6;5;
48531;PMS5003;34927;37.302;-121.982;2022-07-17T03:48:16;6;5;
48531;PMS5003;34927;37.302;-121.982;2022-07-17T03:49:21;5;4;
48531;PMS5003;34927;37.302;-121.982;2022-07-17T03:50:26;5;4;
48531;PMS5003;34927;37.302;-121.982;2022-07-17T03:51:30;5;4;
48531;PMS5003;34927;37.302;-121.982;2022-07-17T03:52:35;5;4;
48531;PMS5003;34927;37.302;-121.982;2022-07-17T03:53:41;5;4;
48531;PMS5003;34927;37.302;-121.982;2022-07-17T03:54:46;5;4;
48531;PMS5003;34927;37.302;-121.982;2022-07-17T03:55:51;5;4;
48531;PMS5003;34927;37.302;-121.982;2022-07-17T03:56:55;5;4;
48531;PMS5003;34927;37.302;-121.982;2022-07-17T03:58:01;5;4;
48531;PMS5003;34927;37.302;-121.982;2022-07-17T03:59:06;5;4;
48531;PMS5003;34927;37.302;-121.982;2022-07-17T04:00:11;5;4;
48531;PMS5003;34927;37.302;-121.982;2022-07-17T04:01:16;13;6;
48531;PMS5003;34927;37.302;-121.982;2022-07-17T04:02:21;10;6;
48531;PMS5003;34927;37.302;-121.982;2022-07-17T04:03:25;7;5;
48531;PMS5003;34927;37.302;-121.982;2022-07-17T04:04:31;6;5;
48531;PMS5003;34927;37.302;-121.982;2022-07-17T04:05:36;5;4;
48531;PMS5003;34927;37.302;-121.982;2022-07-17T04:06:41;3;3;
48531;PMS5003;34927;37.302;-121.982;2022-07-17T04:07:46;2;2;
48531;PMS5003;34927;37.302;-121.982;2022-07-17T04:08:50;2;2;
48531;PMS5003;34927;37.302;-121.982;2022-07-17T04:09:55;2;2;
48531;PMS5003;34927;37.302;-121.982;2022-07-17T04:11:01;3;3;
48531;PMS5003;34927;37.302;-121.982;2022-07-17T04:12:05;3;3;
48531;PMS5003;34927;37.302;-121.982;2022-07-17T04:13:11;3;3;
48531;PMS5003;34927;37.302;-121.982;2022-07-17T04:14:16;4;4;
48531;PMS5003;34927;37.302;-121.982;2022-07-17T04:15:21;4;4;
48531;PMS5003;34927;37.302;-121.982;2022-07-17T04:16:26;4;4;
48531;PMS5003;34927;37.302;-121.982;2022-07-17T04:17:31;4;4;
48531;PMS5003;34927;37.302;-121.982;2022-07-17T04:18:35;4;4;
48531;PMS5003;34927;37.302;-121.982;2022-07-17T04:19:40;4;4;
48531;PMS5003;34927;37.302;-121.982;2022-07-17T04:20:46;5;5;
48531;PMS5003;34927;37.302;-121.982;2022-07-17T04:21:51;5;5;
48531;PMS5003;34927;37.302;-121.982;2022-07-17T04:22:56;4;4;
48531;PMS5003;34927;37.302;-121.982;2022-07-17T04:24:00;4;4;
48531;PMS5003;34927;37.302;-121.982;2022-07-17T04:25:06;6;4;
48531;PMS5003;34927;37.302;-121.982;2022-07-17T04:26:11;6;4;
48531;PMS5003;34927;37.302;-121.982;2022-07-17T04:27:15;6;4;
48531;PMS5003;34927;37.302;-121.982;2022-07-17T04:28:21;5;4;
48531;PMS5003;34927;37.302;-121.982;2022-07-17T04:29:26;5;4;
48531;PMS5003;34927;37.302;-121.982;2022-07-17T04:30:31;4;2;
48531;PMS5003;34927;37.302;-121.982;2022-07-17T04:31:36;5;2;
48531;PMS5003;34927;37.302;-121.982;2022-07-17T04:32:40;6;3;
48531;PMS5003;34927;37.302;-121.982;2022-07-17T04:33:45;6;3;
48531;PMS5003;34927;37.302;-121.982;2022-07-17T04:34:51;7;4;
48531;PMS5003;34927;37.302;-121.982;2022-07-17T04:35:55;7;4;
48531;PMS5003;34927;37.302;-121.982;2022-07-17T04:37:01;6;3;
48531;PMS5003;34927;37.302;-121.982;2022-07-17T04:38:06;7;4;
48531;PMS5003;34927;37.302;-121.982;2022-07-17T04:39:11;7;4;
48531;PMS5003;34927;37.302;-121.982;2022-07-17T04:40:15;7;4;
48531;PMS5003;34927;37.302;-121.982;2022-07-17T04:41:21;5;4;
48531;PMS5003;34927;37.302;-121.982;2022-07-17T04:42:26;5;4;
48531;PMS5003;34927;37.302;-121.982;2022-07-17T04:43:31;5;4;
48531;PMS5003;34927;37.302;-121.982;2022-07-17T04:44:35;5;4;
48531;PMS5003;34927;37.302;-121.982;2022-07-17T04:45:40;5;4;
48531;PMS5003;34927;37.302;-121.982;2022-07-17T04:46:46;6;4;
48531;PMS5003;34927;37.302;-121.982;2022-07-17T04:47:51;5;5;
48531;PMS5003;34927;37.302;-121.982;2022-07-17T04:48:56;5;5;
48531;PMS5003;34927;37.302;-121.982;2022-07-17T04:50:01;5;5;
48531;PMS5003;34927;37.302;-121.982;2022-07-17T04:51:06;4;4;
48531;PMS5003;34927;37.302;-121.982;2022-07-17T04:52:11;4;4;
48531;PMS5003;34927;37.302;-121.982;2022-07-17T04:53:15;4;4;
48531;PMS5003;34927;37.302;-121.982;2022-07-17T04:54:20;4;4;
48531;PMS5003;34927;37.302;-121.982;2022-07-17T04:55:26;4;4;
48531;PMS5003;34927;37.302;-121.982;2022-07-17T04:56:30;4;4;
48531;PMS5003;34927;37.302;-121.982;2022-07-17T04:57:36;5;4;
48531;PMS5003;34927;37.302;-121.982;2022-07-17T04:58:41;5;4;
48531;PMS5003;34927;37.302;-121.982;2022-07-17T04:59:46;5;4;
48531;PMS5003;34927;37.302;-121.982;2022-07-17T05:00:51;4;4;
48531;PMS5003;34927;37.302;-121.982;2022-07-17T05:01:55;7;4;
48531;PMS5003;34927;37.302;-121.982;2022-07-17T05:03:01;7;5;
48531;PMS5003;34927;37.302;-121.982;2022-07-17T05:04:06;9;6;
48531;PMS5003;34927;37.302;-121.982;2022-07-17T05:05:11;6;4;
48531;PMS5003;34927;37.302;-121.982;2022-07-17T05:06:16;6;4;
48531;PMS5003;34927;37.302;-121.982;2022-07-17T05:07:20;5;4;
48531;PMS5003;34927;37.302;-121.982;2022-07-17T05:08:25;6;5;
48531;PMS5003;34927;37.302;-121.982;2022-07-17T05:09:31;4;4;
48531;PMS5003;34927;37.302;-121.982;2022-07-17T05:10:36;4;4;
48531;PMS5003;34927;37.302;-121.982;2022-07-17T05:11:41;4;4;
48531;PMS5003;34927;37.302;-121.982;2022-07-17T05:12:46;4;4;
48531;PMS5003;34927;37.302;-121.982;2022-07-17T05:13:51;4;4;
48531;PMS5003;34927;37.302;-121.982;2022-07-17T05:14:56;4;4;
48531;PMS5003;34927;37.302;-121.982;2022-07-17T05:16:01;4;4;
48531;PMS5003;34927;37.302;-121.982;2022-07-17T05:17:05;4;4;
48531;PMS5003;34927;37.302;-121.982;2022-07-17T05:18:11;4;4;
48531;PMS5003;34927;37.302;-121.982;2022-07-17T05:19:16;5;5;
48531;PMS5003;34927;37.302;-121.982;2022-07-17T05:20:21;5;5;
48531;PMS5003;34927;37.302;-121.982;2022-07-17T05:21:26;5;5;
48531;PMS5003;34927;37.302;-121.982;2022-07-17T05:22:31;4;4;
48531;PMS5003;34927;37.302;-121.982;2022-07-17T05:23:35;4;4;
48531;PMS5003;34927;37.302;-121.982;2022-07-17T05:24:41;5;5;
48531;PMS5003;34927;37.302;-121.982;2022-07-17T05:25:46;5;5;
48531;PMS5003;34927;37.302;-121.982;2022-07-17T05:26:50;5;5;
48531;PMS5003;34927;37.302;-121.982;2022-07-17T05:27:55;5;5;
48531;PMS5003;34927;37.302;-121.982;2022-07-17T05:29:01;5;5;
48531;PMS5003;34927;37.302;-121.982;2022-07-17T05:30:06;4;4;
48531;PMS5003;34927;37.302;-121.982;2022-07-17T05:31:11;4;4;
48531;PMS5003;34927;37.302;-121.982;2022-07-17T05:32:16;5;5;
48531;PMS5003;34927;37.302;-121.982;2022-07-17T05:33:21;5;5;
48531;PMS5003;34927;37.302;-121.982;2022-07-17T05:34:26;5;5;
48531;PMS5003;34927;37.302;-121.982;2022-07-17T05:35:31;5;5;
48531;PMS5003;34927;37.302;-121.982;2022-07-17T05:36:35;4;4;
48531;PMS5003;34927;37.302;-121.982;2022-07-17T05:37:41;4;4;
48531;PMS5003;34927;37.302;-121.982;2022-07-17T05:38:45;5;5;
48531;PMS5003;34927;37.302;-121.982;2022-07-17T05:39:51;5;5;
48531;PMS5003;34927;37.302;-121.982;2022-07-17T05:40:56;5;5;
48531;PMS5003;34927;37.302;-121.982;2022-07-17T05:42:00;5;5;
48531;PMS5003;34927;37.302;-121.982;2022-07-17T05:43:05;5;5;
48531;PMS5003;34927;37.302;-121.982;2022-07-17T05:44:11;5;5;
48531;PMS5003;34927;37.302;-121.982;2022-07-17T05:45:16;5;5;
48531;PMS5003;34927;37.302;-121.982;2022-07-17T05:46:21;7;6;
48531;PMS5003;34927;37.302;-121.982;2022-07-17T05:47:26;7;6;
48531;PMS5003;34927;37.302;-121.982;2022-07-17T05:48:30;7;6;
48531;PMS5003;34927;37.302;-121.982;2022-07-17T05:49:36;7;6;
48531;PMS5003;34927;37.302;-121.982;2022-07-17T05:50:41;7;6;
48531;PMS5003;34927;37.302;-121.982;2022-07-17T05:51:46;6;5;
48531;PMS5003;34927;37.302;-121.982;2022-07-17T05:52:51;6;5;
48531;PMS5003;34927;37.302;-121.982;2022-07-17T05:53:55;6;5;
48531;PMS5003;34927;37.302;-121.982;2022-07-17T05:55:00;5;4;
48531;PMS5003;34927;37.302;-121.982;2022-07-17T05:56:05;6;5;
48531;PMS5003;34927;37.302;-121.982;2022-07-17T05:57:11;6;5;
48531;PMS5003;34927;37.302;-121.982;2022-07-17T05:58:15;6;5;
48531;PMS5003;34927;37.302;-121.982;2022-07-17T05:59:21;6;5;
48531;PMS5003;34927;37.302;-121.982;2022-07-17T06:00:25;2;2;
48531;PMS5003;34927;37.302;-121.982;2022-07-17T06:01:31;4;4;
48531;PMS5003;34927;37.302;-121.982;2022-07-17T06:02:36;6;6;
48531;PMS5003;34927;37.302;-121.982;2022-07-17T06:03:40;6;6;
48531;PMS5003;34927;37.302;-121.982;2022-07-17T06:04:45;6;6;
48531;PMS5003;34927;37.302;-121.982;2022-07-17T06:05:51;5;5;
48531;PMS5003;34927;37.302;-121.982;2022-07-17T06:06:56;5;5;
48531;PMS5003;34927;37.302;-121.982;2022-07-17T06:08:01;3;3;
48531;PMS5003;34927;37.302;-121.982;2022-07-17T06:09:06;3;3;
48531;PMS5003;34927;37.302;-121.982;2022-07-17T06:10:11;3;2;
48531;PMS5003;34927;37.302;-121.982;2022-07-17T06:11:16;5;2;
48531;PMS5003;34927;37.302;-121.982;2022-07-17T06:12:20;6;3;
48531;PMS5003;34927;37.302;-121.982;2022-07-17T06:13:26;5;3;
48531;PMS5003;34927;37.302;-121.982;2022-07-17T06:14:31;6;3;
48531;PMS5003;34927;37.302;-121.982;2022-07-17T06:15:36;6;3;
48531;PMS5003;34927;37.302;-121.982;2022-07-17T06:16:41;6;3;
48531;PMS5003;34927;37.302;-121.982;2022-07-17T06:17:45;5;2;
48531;PMS5003;34927;37.302;-121.982;2022-07-17T06:18:51;5;2;
48531;PMS5003;34927;37.302;-121.982;2022-07-17T06:19:55;6;3;
48531;PMS5003;34927;37.302;-121.982;2022-07-17T06:21:00;6;4;
48531;PMS5003;34927;37.302;-121.982;2022-07-17T06:22:06;5;4;
48531;PMS5003;34927;37.302;-121.982;2022-07-17T06:23:11;5;4;
48531;PMS5003;34927;37.302;-121.982;2022-07-17T06:24:16;6;4;
48531;PMS5003;34927;37.302;-121.982;2022-07-17T06:25:21;4;3;
48531;PMS5003;34927;37.302;-121.982;2022-07-17T06:26:26;4;3;
48531;PMS5003;34927;37.302;-121.982;2022-07-17T06:27:30;4;4;
48531;PMS5003;34927;37.302;-121.982;2022-07-17T06:28:35;5;5;
48531;PMS5003;34927;37.302;-121.982;2022-07-17T06:29:41;5;5;
48531;PMS5003;34927;37.302;-121.982;2022-07-17T06:30:45;4;4;
48531;PMS5003;34927;37.302;-121.982;2022-07-17T06:31:50;3;3;
48531;PMS5003;34927;37.302;-121.982;2022-07-17T06:32:56;4;4;
48531;PMS5003;34927;37.302;-121.982;2022-07-17T06:34:00;4;4;
48531;PMS5003;34927;37.302;-121.982;2022-07-17T06:35:06;4;4;
48531;PMS5003;34927;37.302;-121.982;2022-07-17T06:36:11;4;4;
48531;PMS5003;34927;37.302;-121.982;2022-07-17T06:37:16;4;4;
48531;PMS5003;34927;37.302;-121.982;2022-07-17T06:38:21;3;3;
48531;PMS5003;34927;37.302;-121.982;2022-07-17T06:39:25;3;3;
48531;PMS5003;34927;37.302;-121.982;2022-07-17T06:40:31;3;3;
48531;PMS5003;34927;37.302;-121.982;2022-07-17T06:41:36;4;4;
48531;PMS5003;34927;37.302;-121.982;2022-07-17T06:42:41;4;4;
48531;PMS5003;34927;37.302;-121.982;2022-07-17T06:43:46;3;3;
48531;PMS5003;34927;37.302;-121.982;2022-07-17T06:44:50;3;3;
48531;PMS5003;34927;37.302;-121.982;2022-07-17T06:45:55;3;3;
48531;PMS5003;34927;37.302;-121.982;2022-07-17T06:47:01;3;3;
48531;PMS5003;34927;37.302;-121.982;2022-07-17T06:48:05;4;4;
48531;PMS5003;34927;37.302;-121.982;2022-07-17T06:49:11;4;4;
48531;PMS5003;34927;37.302;-121.982;2022-07-17T06:50:16;4;4;
48531;PMS5003;34927;37.302;-121.982;2022-07-17T06:51:20;5;5;
48531;PMS5003;34927;37.302;-121.982;2022-07-17T06:52:26;5;5;
48531;PMS5003;34927;37.302;-121.982;2022-07-17T06:53:30;5;5;
48531;PMS5003;34927;37.302;-121.982;2022-07-17T06:54:36;6;6;
48531;PMS5003;34927;37.302;-121.982;2022-07-17T06:55:41;5;5;
48531;PMS5003;34927;37.302;-121.982;2022-07-17T06:56:45;5;5;
48531;PMS5003;34927;37.302;-121.982;2022-07-17T06:57:51;6;5;
48531;PMS5003;34927;37.302;-121.982;2022-07-17T06:58:56;7;6;
48531;PMS5003;34927;37.302;-121.982;2022-07-17T07:00:01;7;6;
48531;PMS5003;34927;37.302;-121.982;2022-07-17T07:01:06;16;10;
48531;PMS5003;34927;37.302;-121.982;2022-07-17T07:02:11;13;8;
48531;PMS5003;34927;37.302;-121.982;2022-07-17T07:03:16;11;7;
48531;PMS5003;34927;37.302;-121.982;2022-07-17T07:04:21;9;6;